.
WxDataArchive / Data Records for 2010-02-25
2010-02-24 February 2010 2010-02-26

Data Records for Thursday, 25 February 2010

Time	Temp	Chill	HIndex	Humid	Dewpt	 Wind 	HiWind	WindDir	Rain 	Barom 
-----	----	-----	------	-----	-----	------	------	-------	-----	----- 
00:00	20.2	20.2	20.2	83	15.9	0	1	248	0.00	29.973 
00:05	20.3	20.3	20.3	83	16.0	0	1	248	0.00	29.973 
00:10	20.3	20.3	20.3	83	16.0	0	1	248	0.00	29.973 
00:15	20.3	20.3	20.3	83	16.0	0	1	248	0.00	29.966 
00:20	20.3	20.3	20.3	83	16.0	0	1	248	0.00	29.966 
00:25	20.3	20.3	20.3	83	16.0	0	1	248	0.00	29.966 
00:30	20.3	20.3	20.3	83	16.0	0	1	248	0.00	29.962 
00:35	20.3	20.3	20.3	83	16.0	0	1	248	0.00	29.962 
00:40	20.3	20.3	20.3	83	16.0	0	1	248	0.00	29.962 
00:45	20.3	20.3	20.3	83	16.0	0	1	248	0.00	29.962 
00:50	20.2	20.2	20.2	83	15.9	0	1	248	0.00	29.962 
00:55	20.2	20.2	20.2	83	15.9	0	1	248	0.00	29.962 
01:00	20.2	20.2	20.2	83	15.9	0	0	---	0.00	29.963 
01:05	20.0	20.0	20.0	83	15.7	0	1	248	0.00	29.963 
01:10	20.0	20.0	20.0	83	15.7	0	1	248	0.00	29.963 
01:15	19.9	19.9	19.9	83	15.6	0	1	248	0.00	29.963 
01:20	19.7	19.7	19.7	83	15.4	0	1	248	0.00	29.963 
01:25	19.5	19.5	19.5	83	15.2	0	0	---	0.00	29.963 
01:30	19.4	19.4	19.4	84	15.4	0	1	248	0.00	29.962 
01:35	19.4	19.4	19.4	84	15.4	0	0	---	0.00	29.962 
01:40	19.2	19.2	19.2	84	15.2	0	0	---	0.00	29.962 
01:45	19.1	19.1	19.1	84	15.1	0	1	248	0.00	29.964 
01:50	18.9	18.9	18.9	84	14.9	0	0	---	0.00	29.964 
01:55	18.9	18.9	18.9	84	14.9	0	0	---	0.00	29.964 
02:00	18.9	18.9	18.9	85	15.2	0	1	248	0.00	29.963 
02:05	19.1	19.1	19.1	85	15.3	0	1	248	0.00	29.963 
02:10	19.2	19.2	19.2	85	15.4	0	1	248	0.00	29.963 
02:15	19.4	19.4	19.4	86	15.9	0	1	248	0.00	29.961 
02:20	19.7	19.7	19.7	86	16.2	0	1	248	0.00	29.961 
02:25	20.0	20.0	20.0	86	16.5	0	1	248	0.00	29.961 
02:30	20.3	20.3	20.3	86	16.8	0	1	248	0.00	29.961 
02:35	20.6	20.6	20.6	87	17.4	0	1	248	0.00	29.961 
02:40	20.6	20.6	20.6	87	17.4	0	0	---	0.00	29.961 
02:45	21.0	21.0	21.0	87	17.8	0	1	248	0.00	29.963 
02:50	21.3	21.3	21.3	87	18.0	0	2	248	0.00	29.963 
02:55	21.9	21.9	21.9	88	18.9	0	1	248	0.00	29.963 
03:00	22.2	22.2	22.2	88	19.2	0	2	248	0.00	29.964 
03:05	22.7	22.7	22.7	88	19.7	0	2	248	0.00	29.964 
03:10	23.0	23.0	23.0	88	20.0	1	5	270	0.00	29.964 
03:15	23.3	23.3	23.3	88	20.3	0	2	270	0.00	29.964 
03:20	23.6	23.6	23.6	88	20.6	1	3	270	0.00	29.964 
03:25	23.8	23.8	23.8	88	20.8	1	2	270	0.00	29.964 
03:30	23.9	23.9	23.9	88	20.9	0	3	270	0.00	29.964 
03:35	24.1	24.1	24.1	88	21.1	0	2	270	0.00	29.964 
03:40	24.1	24.1	24.1	88	21.1	0	2	270	0.00	29.964 
03:45	24.2	24.2	24.2	88	21.2	0	2	338	0.00	29.967 
03:50	24.4	24.4	24.4	88	21.4	0	1	338	0.00	29.967 
03:55	24.5	24.5	24.5	88	21.5	0	2	292	0.00	29.967 
04:00	24.7	24.7	24.7	88	21.7	0	2	315	0.00	29.971 
04:05	24.8	24.8	24.8	88	21.8	1	3	0	0.00	29.971 
04:10	25.0	25.0	25.0	88	22.0	1	3	338	0.00	29.971 
04:15	25.0	25.0	25.0	88	22.0	0	2	338	0.00	29.972 
04:20	25.0	25.0	25.0	88	22.0	0	3	270	0.00	29.972 
04:25	25.0	25.0	25.0	88	22.0	0	4	270	0.00	29.972 
04:30	25.1	25.1	25.1	88	22.1	0	3	270	0.00	29.975 
04:35	25.1	25.1	25.1	88	22.1	0	2	270	0.00	29.975 
04:40	25.3	25.3	25.3	88	22.3	0	3	270	0.00	29.975 
04:45	25.4	25.4	25.4	88	22.4	0	2	270	0.00	29.981 
04:50	25.4	25.4	25.4	88	22.4	0	1	270	0.00	29.981 
04:55	25.6	25.6	25.6	88	22.5	0	1	270	0.00	29.981 
05:00	25.6	25.6	25.6	88	22.5	0	2	270	0.00	29.986 
05:05	25.6	25.6	25.6	88	22.5	0	2	270	0.00	29.986 
05:10	25.7	25.7	25.7	88	22.6	0	2	22	0.00	29.986 
05:15	25.7	25.7	25.7	88	22.6	0	3	270	0.00	29.988 
05:20	25.7	25.7	25.7	87	22.4	0	2	270	0.00	29.988 
05:25	25.7	25.7	25.7	87	22.4	0	2	270	0.00	29.988 
05:30	25.7	25.7	25.7	87	22.4	0	3	270	0.00	29.988 
05:35	25.7	25.7	25.7	87	22.4	0	2	270	0.00	29.988 
05:40	25.7	25.7	25.7	86	22.1	0	2	270	0.00	29.988 
05:45	25.7	25.7	25.7	86	22.1	0	2	270	0.00	29.989 
05:50	25.6	25.6	25.6	86	22.0	0	1	270	0.00	29.989 
05:55	25.4	25.4	25.4	85	21.5	0	1	270	0.00	29.989 
06:00	25.3	25.3	25.3	85	21.4	0	1	270	0.00	29.995 
06:05	25.1	25.1	25.1	84	21.0	0	2	270	0.00	29.995 
06:10	25.0	25.0	25.0	84	20.9	0	2	270	0.00	29.995 
06:15	25.0	25.0	25.0	84	20.9	0	2	270	0.00	29.998 
06:20	25.0	25.0	25.0	84	20.9	0	1	270	0.00	29.998 
06:25	25.1	25.1	25.1	84	21.0	0	2	270	0.00	29.998 
06:30	25.3	25.3	25.3	84	21.2	0	1	270	0.00	30.001 
06:35	25.3	25.3	25.3	84	21.2	0	2	270	0.00	30.001 
06:40	25.4	25.4	25.4	84	21.3	0	2	270	0.00	30.001 
06:45	25.4	25.4	25.4	84	21.3	0	2	248	0.00	30.004 
06:50	25.4	25.4	25.4	84	21.3	0	2	248	0.00	30.004 
06:55	25.4	25.4	25.4	84	21.3	0	3	248	0.00	30.004 
07:00	25.4	25.4	25.4	85	21.5	0	3	248	0.00	30.004 
07:05	25.3	25.3	25.3	85	21.4	0	2	248	0.00	30.004 
07:10	25.4	25.4	25.4	85	21.5	0	2	248	0.00	30.004 
07:15	25.4	25.4	25.4	85	21.5	0	2	248	0.00	30.005 
07:20	25.4	25.4	25.4	85	21.5	0	2	248	0.00	30.005 
07:25	25.6	25.6	25.6	85	21.7	1	3	270	0.00	30.005 
07:30	25.6	25.6	25.6	84	21.5	1	3	0	0.00	30.008 
07:35	25.6	25.6	25.6	84	21.5	1	4	338	0.00	30.008 
07:40	25.4	25.4	25.4	84	21.3	2	7	270	0.00	30.008 
07:45	25.0	25.0	25.0	82	20.3	2	9	315	0.00	30.018 
07:50	24.8	24.8	24.8	81	19.8	2	5	315	0.00	30.018 
07:55	24.5	24.5	24.5	81	19.5	2	5	292	0.00	30.018 
08:00	24.1	24.1	24.1	79	18.5	3	9	338	0.00	30.023 
08:05	23.8	23.8	23.8	78	18.0	2	7	270	0.00	30.023 
08:10	23.5	23.5	23.5	77	17.4	2	6	315	0.00	30.023 
08:15	23.3	23.3	23.3	76	16.9	1	4	338	0.00	30.031 
08:20	23.0	23.0	23.0	75	16.3	2	4	338	0.00	30.031 
08:25	22.9	22.9	22.9	74	15.9	2	6	270	0.00	30.031 
08:30	22.7	22.7	22.7	74	15.7	2	5	292	0.00	30.035 
08:35	22.5	22.5	22.5	73	15.2	2	6	292	0.00	30.035 
08:40	22.4	22.4	22.4	73	15.1	3	9	338	0.00	30.035 
08:45	22.4	22.4	22.4	73	15.1	2	4	338	0.00	30.036 
08:50	22.4	22.4	22.4	73	15.1	3	6	270	0.00	30.036 
08:55	22.5	22.5	22.5	73	15.2	2	7	292	0.00	30.036 
09:00	22.5	22.5	22.5	72	14.9	2	8	0	0.00	30.038 
09:05	22.4	22.4	22.4	72	14.8	2	5	338	0.00	30.038 
09:10	22.5	22.5	22.5	72	14.9	2	5	270	0.00	30.038 
09:15	22.9	22.9	22.9	72	15.2	1	6	292	0.00	30.041 
09:20	23.2	23.2	23.2	71	15.2	1	4	338	0.00	30.041 
09:25	23.8	23.8	23.8	71	15.8	0	2	338	0.00	30.041 
09:30	24.2	24.2	24.2	69	15.5	1	5	338	0.00	30.035 
09:35	24.5	24.5	24.5	69	15.8	1	4	0	0.00	30.035 
09:40	24.5	24.5	24.5	68	15.5	2	6	338	0.00	30.035 
09:45	24.7	24.7	24.7	68	15.7	1	3	315	0.00	30.033 
09:50	24.7	24.7	24.7	67	15.3	1	6	0	0.00	30.033 
09:55	24.7	24.7	24.7	66	15.0	2	5	0	0.00	30.033 
10:00	24.8	24.8	24.8	65	14.7	1	6	315	0.00	30.030 
10:05	24.8	24.8	24.8	65	14.7	1	5	0	0.00	30.030 
10:10	25.1	25.1	25.1	65	15.0	2	5	270	0.00	30.030 
10:15	25.4	25.4	25.4	64	14.9	1	4	22	0.00	30.032 
10:20	25.6	25.6	25.6	62	14.4	2	4	315	0.00	30.032 
10:25	25.6	25.6	25.6	62	14.4	2	6	0	0.00	30.032 
10:30	25.6	25.6	25.6	62	14.4	2	9	315	0.00	30.029 
10:35	25.7	25.7	25.7	62	14.5	2	6	315	0.00	30.029 
10:40	26.0	26.0	26.0	63	15.2	2	6	292	0.00	30.029 
10:45	26.1	26.1	26.1	62	14.9	2	5	338	0.00	30.035 
10:50	26.6	26.6	26.6	62	15.4	1	5	338	0.00	30.035 
10:55	26.4	26.4	26.4	60	14.4	2	6	338	0.00	30.035 
11:00	26.4	26.4	26.4	60	14.4	3	9	270	0.00	30.034 
11:05	26.4	26.4	26.4	60	14.4	2	7	315	0.00	30.034 
11:10	26.3	26.3	26.3	61	14.7	2	9	0	0.00	30.034 
11:15	26.4	26.4	26.4	62	15.2	2	6	292	0.00	30.032 
11:20	26.7	26.7	26.7	62	15.5	2	6	315	0.00	30.032 
11:25	26.6	21.8	26.6	62	15.4	4	8	315	0.00	30.032 
11:30	26.4	26.4	26.4	62	15.2	2	7	338	0.00	30.035 
11:35	26.7	26.7	26.7	63	15.8	2	4	338	0.00	30.035 
11:40	26.7	26.7	26.7	63	15.8	2	5	270	0.00	30.035 
11:45	26.6	26.6	26.6	64	16.1	2	9	292	0.00	30.031 
11:50	26.7	26.7	26.7	64	16.2	3	7	270	0.00	30.031 
11:55	26.9	26.9	26.9	64	16.4	2	5	315	0.00	30.031 
12:00	26.9	26.9	26.9	64	16.4	3	6	338	0.00	30.028 
12:05	26.9	26.9	26.9	65	16.7	3	7	292	0.00	30.028 
12:10	27.0	27.0	27.0	65	16.8	2	6	292	0.00	30.028 
12:15	27.0	27.0	27.0	65	16.8	3	7	270	0.00	30.026 
12:20	27.2	27.2	27.2	65	17.0	2	6	315	0.00	30.026 
12:25	27.2	27.2	27.2	66	17.4	2	5	315	0.00	30.026 
12:30	27.6	27.6	27.6	65	17.4	2	6	338	0.00	30.021 
12:35	27.9	27.9	27.9	65	17.7	2	4	315	0.00	30.021 
12:40	28.4	28.4	28.4	64	17.8	3	9	315	0.00	30.021 
12:45	28.5	28.5	28.5	63	17.5	3	7	315	0.00	30.015 
12:50	28.7	28.7	28.7	63	17.7	2	7	270	0.00	30.015 
12:55	28.7	28.7	28.7	63	17.7	2	7	270	0.00	30.015 
13:00	28.4	23.9	28.4	62	17.1	4	9	292	0.00	30.011 
13:05	28.4	23.9	28.4	62	17.1	4	11	315	0.00	30.011 
13:10	28.4	28.4	28.4	63	17.4	3	11	292	0.00	30.011 
13:15	28.8	28.8	28.8	63	17.8	3	6	270	0.00	30.007 
13:20	28.7	24.3	28.7	62	17.4	4	12	270	0.00	30.007 
13:25	28.8	28.8	28.8	63	17.8	2	5	270	0.00	30.007 
13:30	28.8	28.8	28.8	63	17.8	3	6	270	0.00	30.004 
13:35	28.7	28.7	28.7	63	17.7	2	10	315	0.00	30.004 
13:40	28.7	28.7	28.7	64	18.1	3	9	270	0.00	30.004 
13:45	28.7	28.7	28.7	64	18.1	3	7	292	0.00	29.998 
13:50	28.8	28.8	28.8	64	18.2	2	6	315	0.00	29.998 
13:55	29.0	29.0	29.0	64	18.4	2	5	315	0.00	29.998 
14:00	29.1	29.1	29.1	63	18.1	3	7	315	0.00	29.996 
14:05	29.1	29.1	29.1	64	18.5	3	6	315	0.00	29.996 
14:10	29.3	29.3	29.3	63	18.3	3	10	270	0.00	29.996 
14:15	29.1	29.1	29.1	64	18.5	3	10	315	0.00	29.991 
14:20	29.1	23.7	29.1	63	18.1	5	12	270	0.00	29.991 
14:25	29.5	29.5	29.5	63	18.5	3	8	292	0.00	29.991 
14:30	29.7	29.7	29.7	62	18.3	3	9	338	0.00	29.987 
14:35	29.7	29.7	29.7	62	18.3	3	10	315	0.00	29.987 
14:40	29.5	29.5	29.5	62	18.1	3	9	292	0.00	29.987 
14:45	29.5	29.5	29.5	62	18.1	3	9	338	0.00	29.984 
14:50	29.8	29.8	29.8	62	18.4	2	5	338	0.00	29.984 
14:55	30.1	30.1	30.1	62	18.7	3	9	270	0.00	29.984 
15:00	29.8	25.5	29.8	62	18.4	4	10	315	0.00	29.986 
15:05	29.8	29.8	29.8	64	19.1	3	6	0	0.00	29.986 
15:10	29.8	29.8	29.8	63	18.8	3	9	315	0.00	29.986 
15:15	30.0	30.0	30.0	65	19.7	2	6	315	0.00	29.985 
15:20	30.0	30.0	30.0	65	19.7	3	7	248	0.00	29.985 
15:25	30.0	30.0	30.0	66	20.0	3	10	270	0.00	29.985 
15:30	29.8	29.8	29.8	67	20.2	3	9	315	0.00	29.986 
15:35	29.7	29.7	29.7	67	20.1	3	12	338	0.00	29.986 
15:40	29.7	29.7	29.7	69	20.8	3	7	338	0.00	29.986 
15:45	29.5	29.5	29.5	71	21.3	2	5	270	0.00	29.987 
15:50	29.3	29.3	29.3	73	21.7	3	9	315	0.00	29.987 
15:55	29.1	29.1	29.1	74	21.9	3	7	315	0.00	29.987 
16:00	29.0	29.0	29.0	74	21.8	3	7	270	0.00	29.990 
16:05	29.0	29.0	29.0	74	21.8	2	5	270	0.00	29.990 
16:10	29.1	24.7	29.1	73	21.5	4	8	270	0.00	29.990 
16:15	29.0	29.0	29.0	73	21.4	3	10	292	0.00	29.997 
16:20	28.7	28.7	28.7	74	21.5	3	10	292	0.00	29.997 
16:25	28.5	28.5	28.5	74	21.3	3	9	270	0.00	29.997 
16:30	28.4	28.4	28.4	74	21.2	3	5	270	0.00	29.996 
16:35	28.4	28.4	28.4	74	21.2	2	5	270	0.00	29.996 
16:40	28.4	28.4	28.4	73	20.9	3	9	315	0.00	29.996 
16:45	28.4	28.4	28.4	71	20.2	3	10	292	0.00	29.996 
16:50	28.4	23.9	28.4	70	19.9	4	11	315	0.00	29.996 
16:55	28.5	24.0	28.5	69	19.6	4	9	315	0.00	29.996 
17:00	28.5	28.5	28.5	70	20.0	2	10	270	0.00	29.994 
17:05	28.5	28.5	28.5	70	20.0	2	5	315	0.00	29.994 
17:10	28.5	28.5	28.5	71	20.3	2	5	338	0.00	29.994 
17:15	28.4	28.4	28.4	73	20.9	3	6	292	0.00	30.000 
17:20	28.1	23.6	28.1	74	20.9	4	11	292	0.00	30.000 
17:25	27.9	27.9	27.9	75	21.0	2	5	315	0.00	30.000 
17:30	27.9	27.9	27.9	76	21.3	3	10	315	0.00	30.000 
17:35	27.8	27.8	27.8	75	20.9	3	7	338	0.00	30.000 
17:40	27.8	27.8	27.8	74	20.6	3	7	338	0.00	30.000 
17:45	27.8	27.8	27.8	75	20.9	2	6	315	0.00	30.001 
17:50	27.6	27.6	27.6	75	20.7	2	6	315	0.00	30.001 
17:55	27.6	27.6	27.6	76	21.0	2	7	292	0.00	30.001 
18:00	27.5	27.5	27.5	75	20.6	3	7	270	0.00	30.003 
18:05	27.5	27.5	27.5	75	20.6	2	7	315	0.00	30.003 
18:10	27.5	27.5	27.5	76	20.9	2	7	270	0.00	30.003 
18:15	27.5	27.5	27.5	76	20.9	1	4	315	0.00	30.004 
18:20	27.3	27.3	27.3	76	20.8	2	5	270	0.00	30.004 
18:25	27.3	27.3	27.3	76	20.8	3	7	338	0.00	30.004 
18:30	27.3	27.3	27.3	76	20.8	2	5	248	0.00	30.005 
18:35	27.2	27.2	27.2	76	20.7	3	7	315	0.00	30.005 
18:40	27.2	27.2	27.2	76	20.7	3	8	315	0.00	30.005 
18:45	27.2	27.2	27.2	76	20.7	2	5	292	0.00	30.006 
18:50	27.2	27.2	27.2	75	20.3	3	6	270	0.00	30.006 
18:55	27.2	27.2	27.2	75	20.3	3	9	270	0.00	30.006 
19:00	27.2	27.2	27.2	75	20.3	3	11	270	0.00	30.008 
19:05	27.2	27.2	27.2	74	20.0	3	7	315	0.00	30.008 
19:10	27.2	27.2	27.2	74	20.0	2	5	315	0.00	30.008 
19:15	27.2	27.2	27.2	73	19.7	3	9	315	0.00	30.012 
19:20	27.2	22.5	27.2	73	19.7	4	9	315	0.00	30.012 
19:25	27.2	27.2	27.2	73	19.7	2	6	338	0.00	30.012 
19:30	27.2	27.2	27.2	74	20.0	2	7	270	0.00	30.013 
19:35	27.2	27.2	27.2	74	20.0	3	6	315	0.00	30.013 
19:40	27.2	27.2	27.2	74	20.0	3	7	270	0.00	30.013 
19:45	27.0	27.0	27.0	75	20.2	3	10	270	0.00	30.009 
19:50	27.0	22.3	27.0	75	20.2	4	6	248	0.00	30.009 
19:55	27.0	27.0	27.0	75	20.2	3	6	292	0.00	30.009 
20:00	26.9	26.9	26.9	76	20.4	3	5	270	0.00	30.009 
20:05	26.9	26.9	26.9	76	20.4	3	6	270	0.00	30.009 
20:10	26.9	26.9	26.9	76	20.4	3	6	315	0.00	30.009 
20:15	26.7	26.7	26.7	76	20.2	3	8	248	0.00	30.005 
20:20	26.7	26.7	26.7	76	20.2	3	9	315	0.00	30.005 
20:25	26.7	26.7	26.7	76	20.2	3	9	270	0.00	30.005 
20:30	26.7	26.7	26.7	76	20.2	2	6	315	0.00	30.005 
20:35	26.9	26.9	26.9	76	20.4	2	5	292	0.00	30.005 
20:40	26.9	26.9	26.9	77	20.7	2	5	292	0.00	30.005 
20:45	26.7	26.7	26.7	77	20.5	3	6	315	0.00	30.006 
20:50	26.7	26.7	26.7	77	20.5	2	5	315	0.00	30.006 
20:55	26.7	26.7	26.7	78	20.8	1	6	315	0.00	30.006 
21:00	26.7	26.7	26.7	77	20.5	3	12	315	0.00	30.005 
21:05	26.7	26.7	26.7	77	20.5	2	6	315	0.00	30.005 
21:10	26.9	26.9	26.9	77	20.7	3	7	315	0.00	30.005 
21:15	26.9	26.9	26.9	77	20.7	3	7	292	0.00	30.002 
21:20	26.9	26.9	26.9	77	20.7	2	5	292	0.00	30.002 
21:25	27.0	27.0	27.0	76	20.5	3	7	338	0.00	30.002 
21:30	27.0	27.0	27.0	76	20.5	3	6	315	0.00	30.004 
21:35	27.0	27.0	27.0	76	20.5	3	9	315	0.00	30.004 
21:40	27.0	27.0	27.0	75	20.2	2	6	315	0.00	30.004 
21:45	27.0	27.0	27.0	75	20.2	2	6	338	0.00	30.005 
21:50	27.0	27.0	27.0	75	20.2	3	6	315	0.00	30.005 
21:55	27.0	27.0	27.0	75	20.2	2	6	270	0.00	30.005 
22:00	27.0	27.0	27.0	75	20.2	3	7	270	0.00	30.003 
22:05	27.0	27.0	27.0	75	20.2	3	5	315	0.00	30.003 
22:10	27.2	27.2	27.2	75	20.3	2	5	338	0.00	30.003 
22:15	27.0	27.0	27.0	75	20.2	2	7	338	0.00	29.999 
22:20	27.0	27.0	27.0	75	20.2	3	6	315	0.00	29.999 
22:25	27.0	27.0	27.0	75	20.2	3	7	315	0.00	29.999 
22:30	27.0	27.0	27.0	76	20.5	3	9	338	0.00	30.000 
22:35	27.0	27.0	27.0	76	20.5	2	6	338	0.00	30.000 
22:40	27.0	27.0	27.0	76	20.5	2	6	338	0.00	30.000 
22:45	27.0	27.0	27.0	76	20.5	1	3	292	0.00	29.998 
22:50	27.0	27.0	27.0	76	20.5	2	7	338	0.00	29.998 
22:55	27.0	27.0	27.0	77	20.8	2	9	338	0.00	29.998 
23:00	27.0	27.0	27.0	77	20.8	2	7	248	0.00	29.999 
23:05	27.0	27.0	27.0	77	20.8	3	5	270	0.00	29.999 
23:10	27.0	27.0	27.0	77	20.8	2	4	315	0.00	29.999 
23:15	27.0	27.0	27.0	77	20.8	2	7	248	0.00	29.989 
23:20	26.9	26.9	26.9	77	20.7	2	5	315	0.00	29.989 
23:25	26.9	26.9	26.9	77	20.7	1	4	315	0.00	29.989 
23:30	26.9	26.9	26.9	77	20.7	2	4	292	0.00	29.986 
23:35	26.9	26.9	26.9	77	20.7	2	5	292	0.00	29.986 
23:40	26.9	26.9	26.9	77	20.7	2	5	292	0.00	29.986 
23:45	26.9	26.9	26.9	77	20.7	3	7	270	0.00	29.983 
23:50	27.0	27.0	27.0	77	20.8	2	7	315	0.00	29.983 
23:55	27.0	27.0	27.0	77	20.8	2	4	248	0.00	29.983 

CoCoRaHS
IN-AL-39
A2 Web Hosting
Creative Commons License
GoDaddy
search engine by freefind advanced

loaded 2018-11-13 21:54:28 • last modified 2010-11-18 10:43:29
Privacy PolicyDisclaimer
• wx.awcolley.com is powered by PmWiki v.2002016 •
• all content (unless otherwise noted) © 2018 A W Colley